createdAt,value
2023-04-28T00:00:05.959Z,13.31
2023-04-28T00:02:36.111Z,13.29
2023-04-28T00:05:06.852Z,13.30
2023-04-28T00:07:39.851Z,13.26
2023-04-28T00:10:11.515Z,13.27
2023-04-28T00:12:41.442Z,13.25
2023-04-28T00:15:13.632Z,13.25
2023-04-28T00:17:43.678Z,13.26
2023-04-28T00:20:14.904Z,13.28
2023-04-28T00:22:47.617Z,13.30
2023-04-28T00:25:17.548Z,13.31
2023-04-28T00:27:47.534Z,13.31
2023-04-28T00:30:18.174Z,13.29
2023-04-28T00:32:48.582Z,13.27
2023-04-28T00:35:18.535Z,13.22
2023-04-28T00:37:51.117Z,13.18
2023-04-28T00:40:21.316Z,13.15
2023-04-28T00:42:51.285Z,13.12
2023-04-28T00:45:21.400Z,13.09
2023-04-28T00:47:51.333Z,13.07
2023-04-28T00:50:21.545Z,13.04
2023-04-28T00:52:54.845Z,13.02
2023-04-28T00:55:25.275Z,13.00
2023-04-28T00:57:55.540Z,12.98
2023-04-28T01:00:25.872Z,12.95
2023-04-28T01:02:58.438Z,12.93
2023-04-28T01:05:29.633Z,12.89
2023-04-28T01:08:02.136Z,12.85
2023-04-28T01:10:31.981Z,12.81
2023-04-28T01:13:01.837Z,12.80
2023-04-28T01:15:32.620Z,12.79
2023-04-28T01:18:02.905Z,12.72
2023-04-28T01:20:32.832Z,12.68
2023-04-28T01:23:05.692Z,12.66
2023-04-28T01:25:38.419Z,12.63
2023-04-28T01:28:08.509Z,12.62
2023-04-28T01:30:40.638Z,12.63
2023-04-28T01:33:10.882Z,12.59
2023-04-28T01:35:40.777Z,12.58
2023-04-28T01:38:10.685Z,12.58
2023-04-28T01:40:46.121Z,12.57
2023-04-28T01:43:16.113Z,12.56
2023-04-28T01:45:47.265Z,12.55
2023-04-28T01:48:17.065Z,12.52
2023-04-28T01:50:46.806Z,12.48
2023-04-28T01:53:24.221Z,12.45
2023-04-28T01:56:11.664Z,12.40
2023-04-28T01:58:41.527Z,12.40
2023-04-28T02:01:11.696Z,12.34
2023-04-28T02:03:41.706Z,12.32
2023-04-28T02:06:11.609Z,12.31
2023-04-28T02:08:41.495Z,12.30
2023-04-28T02:11:13.962Z,12.29
2023-04-28T02:13:43.787Z,12.30
2023-04-28T02:16:13.701Z,12.23
2023-04-28T02:18:43.693Z,12.20
2023-04-28T02:21:14.285Z,12.18
2023-04-28T02:23:44.103Z,12.19
2023-04-28T02:26:17.372Z,12.16
2023-04-28T02:28:47.199Z,12.11
2023-04-28T02:31:17.085Z,12.06
2023-04-28T02:33:46.936Z,12.07
2023-04-28T02:36:16.985Z,12.08
2023-04-28T02:38:46.896Z,12.09
2023-04-28T02:41:19.401Z,12.10
2023-04-28T02:43:49.249Z,12.13
2023-04-28T02:46:19.291Z,12.16
2023-04-28T02:48:49.241Z,12.18
2023-04-28T02:51:19.079Z,12.20
2023-04-28T02:53:48.964Z,12.22
2023-04-28T02:56:21.470Z,12.22
2023-04-28T02:58:51.586Z,12.23
2023-04-28T03:01:21.622Z,12.25
2023-04-28T03:03:51.678Z,12.27
2023-04-28T03:06:21.567Z,12.30
2023-04-28T03:08:51.398Z,12.30
2023-04-28T03:11:23.870Z,12.32
2023-04-28T03:13:53.668Z,12.34
2023-04-28T03:16:23.647Z,12.34
2023-04-28T03:18:53.506Z,12.34
2023-04-28T03:21:23.385Z,12.34
2023-04-28T03:23:53.618Z,12.35
2023-04-28T03:26:26.145Z,12.36
2023-04-28T03:28:57.167Z,12.38
2023-04-28T03:31:27.275Z,12.38
2023-04-28T03:33:57.133Z,12.40
2023-04-28T03:36:27.766Z,12.43
2023-04-28T03:38:57.809Z,12.44
2023-04-28T03:41:30.357Z,12.42
2023-04-28T03:44:00.459Z,12.34
2023-04-28T03:46:30.498Z,12.31
2023-04-28T03:49:00.352Z,12.29
2023-04-28T03:51:30.927Z,12.25
2023-04-28T03:54:00.979Z,12.22
2023-04-28T03:56:33.531Z,12.19
2023-04-28T03:59:03.333Z,12.17
2023-04-28T04:01:33.250Z,12.12
2023-04-28T04:04:03.412Z,12.09
2023-04-28T04:06:34.224Z,12.10
2023-04-28T04:09:04.099Z,12.08
2023-04-28T04:11:36.638Z,12.06
2023-04-28T04:14:06.577Z,12.06
2023-04-28T04:16:36.508Z,12.08
2023-04-28T04:19:06.364Z,12.10
2023-04-28T04:21:36.440Z,12.12
2023-04-28T04:24:07.150Z,12.12
2023-04-28T04:26:39.713Z,12.12
2023-04-28T04:29:09.553Z,12.12
2023-04-28T04:31:39.951Z,12.12
2023-04-28T04:34:09.963Z,12.11
2023-04-28T04:36:40.102Z,12.14
2023-04-28T04:39:09.922Z,12.17
2023-04-28T04:41:42.658Z,12.13
2023-04-28T04:44:14.170Z,12.10
2023-04-28T04:46:44.461Z,12.08
2023-04-28T04:49:14.352Z,12.11
2023-04-28T04:51:44.451Z,12.11
2023-04-28T04:54:14.559Z,12.13
2023-04-28T04:56:49.044Z,12.13
2023-04-28T04:59:22.315Z,12.13
2023-04-28T05:01:52.494Z,12.16
2023-04-28T05:04:22.899Z,12.17
2023-04-28T05:06:53.077Z,12.18
2023-04-28T05:09:23.412Z,12.17
2023-04-28T05:11:56.309Z,12.18
2023-04-28T05:14:26.250Z,12.18
2023-04-28T05:16:57.185Z,12.19
2023-04-28T05:19:27.735Z,12.21
2023-04-28T05:21:57.590Z,12.20
2023-04-28T05:24:27.556Z,12.17
2023-04-28T05:27:01.919Z,12.16
2023-04-28T05:29:31.840Z,12.16
2023-04-28T05:32:01.963Z,12.15
2023-04-28T05:34:33.934Z,12.16
2023-04-28T05:37:04.130Z,12.18
2023-04-28T05:39:34.051Z,12.19
2023-04-28T05:42:06.909Z,12.25
2023-04-28T05:44:36.914Z,12.30
2023-04-28T05:47:07.118Z,12.36
2023-04-28T05:49:37.032Z,12.39
2023-04-28T05:52:07.613Z,12.42
2023-04-28T05:54:37.833Z,12.47
2023-04-28T05:57:10.777Z,12.52
2023-04-28T05:59:40.750Z,12.56
2023-04-28T06:02:10.874Z,12.60
2023-04-28T06:04:41.936Z,12.58
2023-04-28T06:07:14.869Z,12.58
2023-04-28T06:09:45.331Z,12.60
2023-04-28T06:12:18.360Z,12.62
2023-04-28T06:14:48.538Z,12.64
2023-04-28T06:17:18.435Z,12.70
2023-04-28T06:19:48.307Z,12.75
2023-04-28T06:22:18.445Z,12.74
2023-04-28T06:24:48.323Z,12.77
2023-04-28T06:27:20.969Z,12.79
2023-04-28T06:29:50.786Z,12.77
2023-04-28T06:32:20.836Z,12.80
2023-04-28T06:34:50.713Z,12.82
2023-04-28T06:37:20.760Z,12.84
2023-04-28T06:39:50.868Z,12.84
2023-04-28T06:42:23.495Z,12.86
2023-04-28T06:44:53.352Z,12.90
2023-04-28T06:47:23.546Z,12.93
2023-04-28T06:49:54.495Z,12.94
2023-04-28T06:52:33.434Z,12.93
2023-04-28T06:55:09.880Z,12.99
2023-04-28T06:57:42.844Z,13.10
2023-04-28T07:00:14.252Z,13.25
2023-04-28T07:02:44.364Z,13.35
2023-04-28T07:05:16.117Z,13.45
2023-04-28T07:07:48.308Z,13.51
2023-04-28T07:10:18.528Z,13.56
2023-04-28T07:12:53.056Z,13.66
2023-04-28T07:15:24.175Z,13.78
2023-04-28T07:17:54.123Z,13.91
2023-04-28T07:20:24.071Z,13.98
2023-04-28T07:22:53.972Z,14.06
2023-04-28T07:25:24.193Z,14.05
2023-04-28T07:27:58.389Z,14.01
2023-04-28T07:30:28.473Z,14.08
2023-04-28T07:32:58.764Z,14.20
2023-04-28T07:35:29.253Z,14.22
2023-04-28T07:37:59.872Z,14.32
2023-04-28T07:40:29.818Z,14.40
2023-04-28T07:43:02.711Z,14.40
2023-04-28T07:45:33.188Z,14.42
2023-04-28T07:48:03.213Z,14.47
2023-04-28T07:50:33.398Z,14.54
2023-04-28T07:53:03.298Z,14.59
2023-04-28T07:55:33.214Z,14.67
2023-04-28T07:58:05.958Z,14.61
2023-04-28T08:00:35.925Z,14.62
2023-04-28T08:03:06.284Z,14.70
2023-04-28T08:05:36.468Z,14.77
2023-04-28T08:08:06.522Z,14.88
2023-04-28T08:10:36.455Z,14.95
2023-04-28T08:13:09.002Z,15.02
2023-04-28T08:15:38.986Z,15.11
2023-04-28T08:18:09.085Z,15.16
2023-04-28T08:20:39.081Z,15.18
2023-04-28T08:23:08.915Z,15.21
2023-04-28T08:25:38.807Z,15.30
2023-04-28T08:28:11.387Z,15.39
2023-04-28T08:30:41.486Z,15.41
2023-04-28T08:33:11.443Z,15.45
2023-04-28T08:35:42.539Z,15.53
2023-04-28T08:38:14.265Z,15.63
2023-04-28T08:40:44.899Z,15.72
2023-04-28T08:43:17.437Z,15.72
2023-04-28T08:45:47.722Z,15.63
2023-04-28T08:48:25.349Z,15.65
2023-04-28T08:50:56.074Z,15.62
2023-04-28T08:53:28.526Z,15.74
2023-04-28T08:55:59.866Z,15.90
2023-04-28T08:58:32.607Z,15.95
2023-04-28T09:01:03.517Z,15.95
2023-04-28T09:03:34.274Z,15.91
2023-04-28T09:06:05.333Z,15.95
2023-04-28T09:08:35.291Z,16.03
2023-04-28T09:11:13.861Z,16.04
2023-04-28T09:13:46.418Z,16.16
2023-04-28T09:16:16.431Z,16.24
2023-04-28T09:18:59.928Z,16.24
2023-04-28T09:21:29.793Z,16.34
2023-04-28T09:23:59.897Z,16.37
2023-04-28T09:26:29.750Z,16.34
2023-04-28T09:29:17.587Z,16.29
2023-04-28T09:31:47.844Z,16.44
2023-04-28T09:34:18.513Z,16.47
2023-04-28T09:36:49.083Z,16.52
2023-04-28T09:39:31.236Z,16.62
2023-04-28T09:42:03.669Z,16.78
2023-04-28T09:44:36.519Z,16.90
2023-04-28T09:47:25.261Z,16.90
2023-04-28T09:50:00.079Z,16.92
2023-04-28T09:52:30.531Z,16.89
2023-04-28T09:55:00.969Z,16.91
2023-04-28T09:57:34.813Z,16.92
2023-04-28T10:00:09.549Z,16.90
2023-04-28T10:02:43.706Z,16.95
2023-04-28T10:05:16.597Z,17.03
2023-04-28T10:07:47.529Z,17.16
2023-04-28T10:10:19.404Z,17.26
2023-04-28T10:12:49.904Z,17.30
2023-04-28T10:15:23.339Z,17.13
2023-04-28T10:17:54.112Z,17.07
2023-04-28T10:20:26.477Z,17.10
2023-04-28T10:23:07.869Z,17.04
2023-04-28T10:25:39.776Z,17.12
2023-04-28T10:28:11.566Z,17.20
2023-04-28T10:30:44.272Z,17.23
2023-04-28T10:33:32.589Z,17.22
2023-04-28T10:36:03.921Z,17.24
2023-04-28T10:38:34.089Z,17.25
2023-04-28T10:41:04.808Z,17.29
2023-04-28T10:43:42.677Z,17.23
2023-04-28T10:46:15.703Z,17.23
2023-04-28T10:48:59.169Z,17.24
2023-04-28T10:51:33.362Z,17.29
2023-04-28T10:54:28.481Z,17.27
2023-04-28T10:57:23.323Z,17.36
2023-04-28T10:59:54.617Z,17.44
2023-04-28T11:02:48.245Z,17.39
2023-04-28T11:05:20.121Z,17.40
2023-04-28T11:08:33.486Z,17.38
2023-04-28T11:11:19.632Z,17.41
2023-04-28T11:13:50.369Z,17.49
2023-04-28T11:16:25.919Z,17.56
2023-04-28T11:19:05.580Z,17.53
2023-04-28T11:21:36.640Z,17.45
2023-04-28T11:24:13.152Z,17.35
2023-04-28T11:26:44.005Z,17.35
2023-04-28T11:29:15.313Z,17.38
2023-04-28T11:31:52.964Z,17.30
2023-04-28T11:34:26.930Z,17.30
2023-04-28T11:36:59.198Z,17.36
2023-04-28T11:39:31.786Z,17.41
2023-04-28T11:42:03.127Z,17.49
2023-04-28T11:44:34.668Z,17.54
2023-04-28T11:47:06.293Z,17.55
2023-04-28T11:49:46.713Z,17.55
2023-04-28T11:52:16.952Z,17.63
2023-04-28T11:54:46.922Z,17.62
2023-04-28T11:57:27.029Z,17.56
2023-04-28T11:59:57.197Z,17.61
2023-04-28T12:02:31.360Z,17.58
2023-04-28T12:05:09.585Z,17.52
2023-04-28T12:07:45.933Z,17.53
2023-04-28T12:10:19.184Z,17.57
2023-04-28T12:12:52.682Z,17.65
2023-04-28T12:15:25.029Z,17.69
2023-04-28T12:17:55.431Z,17.74
2023-04-28T12:20:42.927Z,17.72
2023-04-28T12:23:13.177Z,17.73
2023-04-28T12:25:49.699Z,17.77
2023-04-28T12:28:19.718Z,17.85
2023-04-28T12:30:50.014Z,17.92
2023-04-28T12:33:27.716Z,17.95
2023-04-28T12:36:01.730Z,17.99
2023-04-28T12:38:32.653Z,18.12
2023-04-28T12:41:02.946Z,18.32
2023-04-28T12:43:33.550Z,18.51
2023-04-28T12:46:04.345Z,18.62
2023-04-28T12:48:35.105Z,18.87
2023-04-28T12:51:09.413Z,19.07
2023-04-28T12:53:39.528Z,19.16
2023-04-28T12:56:10.590Z,19.21
2023-04-28T12:58:41.482Z,19.24
2023-04-28T13:01:13.787Z,19.24
2023-04-28T13:03:44.625Z,19.25
2023-04-28T13:06:20.295Z,19.20
2023-04-28T13:08:50.174Z,19.19
2023-04-28T13:11:22.905Z,19.18
2023-04-28T13:13:53.611Z,19.17
2023-04-28T13:16:25.350Z,19.17
2023-04-28T13:18:55.227Z,19.21
2023-04-28T13:21:29.067Z,19.33
2023-04-28T13:23:59.680Z,19.45
2023-04-28T13:26:30.729Z,19.57
2023-04-28T13:29:00.890Z,19.66
2023-04-28T13:31:30.991Z,19.67
2023-04-28T13:34:02.780Z,19.70
2023-04-28T13:36:36.289Z,19.78
2023-04-28T13:39:06.756Z,19.87
2023-04-28T13:41:37.203Z,19.97
2023-04-28T13:44:07.216Z,20.08
2023-04-28T13:46:37.226Z,20.14
2023-04-28T13:49:07.517Z,20.14
2023-04-28T13:51:40.147Z,20.14
2023-04-28T13:54:11.774Z,20.05
2023-04-28T13:56:41.866Z,20.05
2023-04-28T13:59:11.782Z,20.10
2023-04-28T14:01:41.678Z,20.18
2023-04-28T14:04:11.886Z,20.25
2023-04-28T14:06:46.970Z,20.26
2023-04-28T14:09:17.261Z,20.25
2023-04-28T14:11:49.065Z,20.26
2023-04-28T14:14:19.238Z,20.26
2023-04-28T14:16:50.542Z,20.25
2023-04-28T14:19:21.155Z,20.18
2023-04-28T14:21:53.890Z,20.25
2023-04-28T14:24:24.182Z,20.38
2023-04-28T14:26:55.261Z,20.71
2023-04-28T14:29:25.185Z,20.75
2023-04-28T14:31:55.059Z,20.64
2023-04-28T14:34:25.065Z,20.59
2023-04-28T14:36:57.711Z,20.52
2023-04-28T14:39:27.621Z,20.49
2023-04-28T14:41:57.614Z,20.41
2023-04-28T14:44:27.685Z,20.32
2023-04-28T14:46:57.680Z,20.26
2023-04-28T14:49:27.861Z,20.19
2023-04-28T14:52:01.155Z,20.26
2023-04-28T14:54:31.331Z,20.30
2023-04-28T14:57:01.891Z,20.30
2023-04-28T14:59:31.846Z,20.27
2023-04-28T15:02:02.157Z,20.18
2023-04-28T15:04:32.230Z,19.99
2023-04-28T15:07:04.817Z,19.89
2023-04-28T15:09:34.699Z,19.79
2023-04-28T15:12:04.645Z,19.78
2023-04-28T15:14:34.704Z,19.77
2023-04-28T15:17:04.588Z,19.84
2023-04-28T15:19:34.957Z,19.78
2023-04-28T15:22:07.570Z,19.74
2023-04-28T15:24:37.737Z,19.66
2023-04-28T15:27:07.725Z,19.60
2023-04-28T15:29:38.405Z,19.48
2023-04-28T15:32:08.913Z,19.41
2023-04-28T15:34:39.174Z,19.32
2023-04-28T15:37:43.807Z,19.08
2023-04-28T15:40:15.918Z,19.04
2023-04-28T15:42:49.584Z,19.08
2023-04-28T15:45:20.197Z,19.12
2023-04-28T15:47:51.301Z,19.22
2023-04-28T15:50:22.128Z,19.32
2023-04-28T15:52:54.873Z,19.46
2023-04-28T15:55:25.627Z,19.44
2023-04-28T15:57:55.564Z,19.25
2023-04-28T16:00:25.853Z,19.24
2023-04-28T16:02:55.804Z,19.29
2023-04-28T16:05:26.495Z,19.34
2023-04-28T16:07:58.997Z,19.32
2023-04-28T16:10:28.996Z,19.32
2023-04-28T16:12:59.052Z,19.30
2023-04-28T16:15:28.850Z,19.25
2023-04-28T16:17:58.883Z,19.22
2023-04-28T16:20:28.721Z,19.14
2023-04-28T16:23:01.266Z,19.13
2023-04-28T16:25:31.158Z,19.05
2023-04-28T16:28:01.156Z,19.05
2023-04-28T16:30:31.120Z,18.93
2023-04-28T16:33:01.124Z,18.77
2023-04-28T16:35:31.034Z,18.78
2023-04-28T16:38:03.679Z,18.79
2023-04-28T16:40:33.730Z,18.84
2023-04-28T16:43:03.702Z,18.82
2023-04-28T16:45:33.841Z,18.75
2023-04-28T16:48:03.866Z,18.74
2023-04-28T16:50:36.580Z,18.72
2023-04-28T16:53:10.402Z,18.75
2023-04-28T16:55:40.755Z,18.78
2023-04-28T16:58:10.685Z,18.74
2023-04-28T17:00:40.614Z,18.70
2023-04-28T17:03:10.567Z,18.67
2023-04-28T17:05:40.521Z,18.63
2023-04-28T17:08:13.351Z,18.59
2023-04-28T17:10:43.173Z,18.55
2023-04-28T17:13:12.941Z,18.54
2023-04-28T17:15:43.105Z,18.52
2023-04-28T17:18:12.915Z,18.49
2023-04-28T17:20:43.236Z,18.49
2023-04-28T17:23:15.992Z,18.50
2023-04-28T17:25:45.894Z,18.47
2023-04-28T17:28:15.905Z,18.40
2023-04-28T17:30:47.603Z,18.34
2023-04-28T17:33:18.177Z,18.29
2023-04-28T17:35:48.262Z,18.24
2023-04-28T17:38:20.661Z,18.24
2023-04-28T17:40:51.320Z,18.22
2023-04-28T17:43:21.998Z,18.21
2023-04-28T17:45:54.403Z,18.21
2023-04-28T17:48:24.506Z,18.08
2023-04-28T17:50:54.676Z,18.07
2023-04-28T17:53:27.616Z,18.03
2023-04-28T17:55:57.636Z,17.96
2023-04-28T17:58:27.578Z,17.94
2023-04-28T18:01:03.277Z,17.96
2023-04-28T18:03:33.697Z,17.96
2023-04-28T18:06:07.781Z,17.96
2023-04-28T18:08:40.375Z,17.91
2023-04-28T18:11:10.232Z,17.83
2023-04-28T18:13:40.145Z,17.86
2023-04-28T18:16:14.045Z,17.82
2023-04-28T18:18:44.711Z,17.79
2023-04-28T18:21:15.145Z,17.68
2023-04-28T18:23:48.170Z,17.60
2023-04-28T18:26:18.391Z,17.56
2023-04-28T18:28:49.741Z,17.51
2023-04-28T18:31:19.743Z,17.48
2023-04-28T18:33:50.056Z,17.44
2023-04-28T18:36:19.922Z,17.41
2023-04-28T18:38:52.466Z,17.37
2023-04-28T18:41:22.225Z,17.24
2023-04-28T18:43:52.138Z,17.15
2023-04-28T18:46:22.467Z,17.09
2023-04-28T18:48:52.498Z,17.07
2023-04-28T18:51:22.852Z,17.07
2023-04-28T18:53:55.306Z,17.06
2023-04-28T18:56:26.663Z,17.04
2023-04-28T18:58:57.014Z,16.98
2023-04-28T19:01:27.760Z,16.93
2023-04-28T19:03:57.926Z,16.92
2023-04-28T19:06:27.866Z,16.86
2023-04-28T19:09:01.792Z,16.81
2023-04-28T19:11:32.441Z,16.80
2023-04-28T19:14:02.433Z,16.74
2023-04-28T19:16:32.323Z,16.71
2023-04-28T19:19:02.683Z,16.70
2023-04-28T19:21:34.521Z,16.70
2023-04-28T19:24:07.555Z,16.70
2023-04-28T19:26:37.855Z,16.68
2023-04-28T19:29:08.178Z,16.68
2023-04-28T19:31:38.080Z,16.65
2023-04-28T19:34:07.981Z,16.63
2023-04-28T19:36:39.335Z,16.63
2023-04-28T19:39:11.911Z,16.60
2023-04-28T19:41:41.790Z,16.59
2023-04-28T19:44:11.774Z,16.61
2023-04-28T19:46:42.934Z,16.59
2023-04-28T19:49:14.535Z,16.58
2023-04-28T19:51:44.588Z,16.55
2023-04-28T19:54:17.114Z,16.54
2023-04-28T19:56:47.219Z,16.53
2023-04-28T19:59:17.872Z,16.50
2023-04-28T20:01:47.888Z,16.49
2023-04-28T20:04:18.934Z,16.49
2023-04-28T20:06:49.113Z,16.48
2023-04-28T20:09:21.856Z,16.51
2023-04-28T20:11:51.753Z,16.52
2023-04-28T20:14:21.862Z,16.52
2023-04-28T20:16:51.797Z,16.49
2023-04-28T20:19:21.726Z,16.45
2023-04-28T20:21:51.924Z,16.47
2023-04-28T20:24:24.632Z,16.46
2023-04-28T20:26:54.958Z,16.42
2023-04-28T20:29:25.393Z,16.43
2023-04-28T20:31:55.340Z,16.46
2023-04-28T20:34:25.377Z,16.47
2023-04-28T20:36:55.955Z,16.49
2023-04-28T20:39:28.627Z,16.41
2023-04-28T20:41:59.602Z,16.36
2023-04-28T20:44:32.801Z,16.36
2023-04-28T20:47:02.767Z,16.35
2023-04-28T20:49:33.132Z,16.29
2023-04-28T20:52:06.698Z,16.26
2023-04-28T20:54:40.095Z,16.30
2023-04-28T20:57:09.989Z,16.32
2023-04-28T20:59:39.989Z,16.39
2023-04-28T21:02:11.597Z,16.38
2023-04-28T21:04:41.684Z,16.38
2023-04-28T21:07:11.533Z,16.34
2023-04-28T21:09:44.209Z,16.32
2023-04-28T21:12:15.108Z,16.33
2023-04-28T21:14:45.375Z,16.29
2023-04-28T21:17:15.519Z,16.22
2023-04-28T21:19:45.444Z,16.22
2023-04-28T21:22:15.298Z,16.21
2023-04-28T21:24:47.977Z,16.23
2023-04-28T21:27:18.098Z,16.19
2023-04-28T21:29:47.996Z,16.12
2023-04-28T21:32:18.070Z,16.07
2023-04-28T21:34:50.429Z,16.04
2023-04-28T21:37:20.390Z,15.94
2023-04-28T21:39:53.139Z,15.90
2023-04-28T21:42:23.138Z,15.87
2023-04-28T21:44:53.123Z,15.90
2023-04-28T21:47:22.954Z,15.85
2023-04-28T21:49:52.914Z,15.82
2023-04-28T21:52:22.745Z,15.79
2023-04-28T21:54:55.500Z,15.80
2023-04-28T21:57:25.254Z,15.80
2023-04-28T21:59:55.233Z,15.77
2023-04-28T22:02:25.417Z,15.75
2023-04-28T22:04:55.569Z,15.77
2023-04-28T22:07:25.948Z,15.75
2023-04-28T22:09:59.924Z,15.63
2023-04-28T22:12:29.739Z,15.59
2023-04-28T22:15:00.343Z,15.51
2023-04-28T22:17:30.390Z,15.47
2023-04-28T22:20:00.281Z,15.41
2023-04-28T22:22:30.121Z,15.39
2023-04-28T22:25:02.818Z,15.39
2023-04-28T22:27:33.559Z,15.37
2023-04-28T22:30:04.192Z,15.30
2023-04-28T22:32:34.542Z,15.30
2023-04-28T22:35:04.925Z,15.30
2023-04-28T22:37:34.704Z,15.25
2023-04-28T22:40:08.694Z,15.28
2023-04-28T22:42:39.703Z,15.23
2023-04-28T22:45:10.929Z,15.20
2023-04-28T22:47:43.134Z,15.22
2023-04-28T22:50:14.535Z,15.24
2023-04-28T22:52:44.466Z,15.23
2023-04-28T22:55:17.077Z,15.26
2023-04-28T22:57:46.855Z,15.25
2023-04-28T23:00:18.662Z,15.24
2023-04-28T23:02:48.588Z,15.23
2023-04-28T23:05:18.685Z,15.24
2023-04-28T23:07:49.427Z,15.23
2023-04-28T23:10:22.197Z,15.26
2023-04-28T23:12:52.064Z,15.29
2023-04-28T23:15:22.125Z,15.29
2023-04-28T23:17:52.081Z,15.29
2023-04-28T23:20:22.134Z,15.13
2023-04-28T23:22:52.747Z,15.06
2023-04-28T23:25:25.653Z,15.08
2023-04-28T23:27:56.366Z,15.06
2023-04-28T23:30:26.410Z,15.05
2023-04-28T23:32:56.689Z,15.08
2023-04-28T23:35:26.725Z,15.07
2023-04-28T23:37:56.753Z,15.03
2023-04-28T23:40:29.733Z,15.00
2023-04-28T23:43:00.112Z,14.98
2023-04-28T23:45:30.072Z,14.93
2023-04-28T23:47:59.990Z,14.87
2023-04-28T23:50:30.798Z,14.86
2023-04-28T23:53:00.682Z,14.83
2023-04-28T23:55:33.122Z,14.81
2023-04-28T23:58:04.905Z,14.77
